No particular awareness of the weather is required.    There are no Weather-warnings


Meteo18 Weather Cam more information Meteo18 Weather Cam


Thunder radar more information blitzortung!


Rain radar more information rain snow radar


Visit our other weather sites:

Template documentation
and downloads

And another site



Weather Underground History page Text

Daily Summary for October 5, 2017 Units:  Both    English   Metric
« Previous Day
Next Day »
Daily Weekly Monthly Yearly Custom
  High: Low: Average:
Temperature: 67.1 °F /  19.5 °C 40.3 °F /  4.6 °C 54.1 °F /  12.3 °C
Dew Point: 55.4 °F /  13.0 °C 39.2 °F /  4.0 °C 48.9 °F /  9.4 °C
Humidity: 98 % 54 % 84 %
Wind Speed: 16 mph /  25.7 km/h - 3.6 mph /  5.8 km/h
Wind Gust: 18 mph /  29.0 km/h - -
Wind:- - WSW
Pressure: 30.3 in /  1025.3 hPa 30.1 in /  1020.5 hPa -
Precipitation: 0.02 in /  0.5 mm    
Historical Graphs
 
 
Tabular Data for October 5, 2017
Time Temperature Dew Point Pressure Wind Wind Speed Wind Gust Humidity Rainfall Rate (Hourly)
00:02 47.7 °F /  8.7 °C 46 °F /  7.8 °C 30.3 in /  1025.3 hPa Calm   1 mph /  1.6 km/h 94 % 0 in /  0.0 mm
00:07 47.8 °F /  8.8 °C 46.2 °F /  7.9 °C 30.3 in /  1025.3 hPa Calm   1 mph /  1.6 km/h 94 % 0 in /  0.0 mm
00:12 47.8 °F /  8.8 °C 46.2 °F /  7.9 °C 30.3 in /  1025.3 hPa Calm   1 mph /  1.6 km/h 94 % 0 in /  0.0 mm
00:17 47.7 °F /  8.7 °C 46 °F /  7.8 °C 30.3 in /  1025.3 hPa Calm   1 mph /  1.6 km/h 94 % 0 in /  0.0 mm
00:22 47.7 °F /  8.7 °C 46 °F /  7.8 °C 30.3 in /  1025.3 hPa Calm   1 mph /  1.6 km/h 94 % 0 in /  0.0 mm
00:32 47.7 °F /  8.7 °C 46 °F /  7.8 °C 30.3 in /  1025.3 hPa Calm   1 mph /  1.6 km/h 94 % 0 in /  0.0 mm
00:47 47.5 °F /  8.6 °C 45.9 °F /  7.7 °C 30.3 in /  1025.3 hPa Calm     94 % 0 in /  0.0 mm
00:52 47.7 °F /  8.7 °C 46 °F /  7.8 °C 30.3 in /  1025.3 hPa Calm     94 % 0 in /  0.0 mm
00:57 47.5 °F /  8.6 °C 45.9 °F /  7.7 °C 30.3 in /  1025.3 hPa Calm     94 % 0 in /  0.0 mm
01:07 47.1 °F /  8.4 °C 45.1 °F /  7.3 °C 30.3 in /  1024.9 hPa Calm     93 % 0 in /  0.0 mm
01:12 46.9 °F /  8.3 °C 45 °F /  7.2 °C 30.3 in /  1025.3 hPa Calm     93 % 0 in /  0.0 mm
01:22 46.8 °F /  8.2 °C 45.1 °F /  7.3 °C 30.3 in /  1024.9 hPa Calm     94 % 0 in /  0.0 mm
01:27 46.6 °F /  8.1 °C 45 °F /  7.2 °C 30.3 in /  1024.9 hPa Calm     94 % 0 in /  0.0 mm
01:32 46.2 °F /  7.9 °C 44.6 °F /  7.0 °C 30.3 in /  1024.9 hPa Calm     94 % 0 in /  0.0 mm
01:37 46.2 °F /  7.9 °C 44.6 °F /  7.0 °C 30.3 in /  1024.9 hPa Calm     94 % 0 in /  0.0 mm
01:42 46.6 °F /  8.1 °C 45.1 °F /  7.3 °C 30.3 in /  1024.9 hPa Calm     95 % 0 in /  0.0 mm
01:52 46.9 °F /  8.3 °C 45.5 °F /  7.5 °C 30.3 in /  1024.9 hPa Calm     95 % 0 in /  0.0 mm
01:57 46.6 °F /  8.1 °C 45 °F /  7.2 °C 30.3 in /  1024.9 hPa Calm     94 % 0 in /  0.0 mm
02:02 46.2 °F /  7.9 °C 44.6 °F /  7.0 °C 30.3 in /  1024.9 hPa Calm     94 % 0 in /  0.0 mm
02:07 46.2 °F /  7.9 °C 44.8 °F /  7.1 °C 30.3 in /  1024.9 hPa Calm     95 % 0 in /  0.0 mm
02:12 46 °F /  7.8 °C 44.4 °F /  6.9 °C 30.3 in /  1024.9 hPa Calm     94 % 0 in /  0.0 mm
02:17 45.7 °F /  7.6 °C 44.1 °F /  6.7 °C 30.3 in /  1024.9 hPa Calm     94 % 0 in /  0.0 mm
02:22 45.7 °F /  7.6 °C 44.4 °F /  6.9 °C 30.3 in /  1024.9 hPa Calm     95 % 0 in /  0.0 mm
02:32 45.7 °F /  7.6 °C 44.4 °F /  6.9 °C 30.3 in /  1024.9 hPa Calm     95 % 0 in /  0.0 mm
02:37 45.3 °F /  7.4 °C 44.1 °F /  6.7 °C 30.3 in /  1024.9 hPa Calm     95 % 0 in /  0.0 mm
02:42 45 °F /  7.2 °C 43.7 °F /  6.5 °C 30.3 in /  1024.9 hPa Calm     95 % 0 in /  0.0 mm
02:47 44.8 °F /  7.1 °C 43.5 °F /  6.4 °C 30.3 in /  1024.6 hPa Calm     95 % 0 in /  0.0 mm
02:52 44.6 °F /  7.0 °C 43.3 °F /  6.3 °C 30.3 in /  1024.6 hPa Calm     95 % 0 in /  0.0 mm
02:57 44.8 °F /  7.1 °C 43.7 °F /  6.5 °C 30.3 in /  1024.9 hPa Calm     96 % 0 in /  0.0 mm
03:02 44.6 °F /  7.0 °C 43.3 °F /  6.3 °C 30.3 in /  1024.6 hPa Calm     95 % 0 in /  0.0 mm
03:07 44.4 °F /  6.9 °C 43.3 °F /  6.3 °C 30.3 in /  1024.6 hPa Calm     96 % 0 in /  0.0 mm
03:12 44.4 °F /  6.9 °C 43.3 °F /  6.3 °C 30.3 in /  1024.6 hPa Calm     96 % 0 in /  0.0 mm
03:17 44.4 °F /  6.9 °C 43.2 °F /  6.2 °C 30.3 in /  1024.6 hPa Calm     95 % 0 in /  0.0 mm
03:22 44.1 °F /  6.7 °C 42.8 °F /  6.0 °C 30.3 in /  1024.3 hPa Calm     95 % 0 in /  0.0 mm
03:27 43.9 °F /  6.6 °C 42.6 °F /  5.9 °C 30.3 in /  1024.3 hPa Calm     95 % 0 in /  0.0 mm
03:32 43.9 °F /  6.6 °C 42.8 °F /  6.0 °C 30.3 in /  1024.3 hPa Calm     96 % 0.01 in /  0.3 mm
03:37 43.7 °F /  6.5 °C 42.6 °F /  5.9 °C 30.3 in /  1024.3 hPa Calm     96 % 0.01 in /  0.3 mm
03:42 43.7 °F /  6.5 °C 42.6 °F /  5.9 °C 30.3 in /  1024.3 hPa Calm     96 % 0.01 in /  0.3 mm
03:47 43.7 °F /  6.5 °C 42.6 °F /  5.9 °C 30.3 in /  1024.3 hPa Calm     96 % 0.01 in /  0.3 mm
03:52 43.9 °F /  6.6 °C 42.8 °F /  6.0 °C 30.2 in /  1023.9 hPa Calm     96 % 0.01 in /  0.3 mm
03:57 43.9 °F /  6.6 °C 42.8 °F /  6.0 °C 30.2 in /  1023.9 hPa Calm     96 % 0.01 in /  0.3 mm
04:02 44.4 °F /  6.9 °C 43.7 °F /  6.5 °C 30.2 in /  1023.9 hPa Calm     97 % 0.01 in /  0.3 mm
04:07 44.1 °F /  6.7 °C 43 °F /  6.1 °C 30.2 in /  1023.9 hPa Calm     96 % 0.01 in /  0.3 mm
04:12 44.1 °F /  6.7 °C 43 °F /  6.1 °C 30.2 in /  1023.6 hPa Calm     96 % 0.01 in /  0.3 mm
04:17 44.1 °F /  6.7 °C 43 °F /  6.1 °C 30.2 in /  1023.6 hPa Calm     96 % 0.01 in /  0.3 mm
04:22 44.1 °F /  6.7 °C 43 °F /  6.1 °C 30.2 in /  1023.6 hPa Calm     96 % 0.01 in /  0.3 mm
04:32 43.5 °F /  6.4 °C 42.4 °F /  5.8 °C 30.2 in /  1023.6 hPa Calm     96 % 0 in /  0.0 mm
04:37 43.5 °F /  6.4 °C 42.4 °F /  5.8 °C 30.2 in /  1023.6 hPa Calm     96 % 0 in /  0.0 mm
04:42 43 °F /  6.1 °C 41.7 °F /  5.4 °C 30.2 in /  1023.6 hPa Calm     95 % 0 in /  0.0 mm
04:47 42.6 °F /  5.9 °C 41.4 °F /  5.2 °C 30.2 in /  1023.6 hPa Calm     95 % 0 in /  0.0 mm
04:52 42.4 °F /  5.8 °C 41.4 °F /  5.2 °C 30.2 in /  1023.6 hPa Calm     96 % 0 in /  0.0 mm
05:02 42.6 °F /  5.9 °C 41.5 °F /  5.3 °C 30.2 in /  1023.2 hPa Calm     96 % 0 in /  0.0 mm
05:22 43.9 °F /  6.6 °C 43.2 °F /  6.2 °C 30.2 in /  1023.6 hPa Calm     97 % 0 in /  0.0 mm
05:27 43.9 °F /  6.6 °C 43.2 °F /  6.2 °C 30.2 in /  1023.6 hPa Calm     97 % 0 in /  0.0 mm
05:32 44.4 °F /  6.9 °C 43.7 °F /  6.5 °C 30.2 in /  1023.2 hPa Calm     97 % 0 in /  0.0 mm
05:37 44.2 °F /  6.8 °C 43.5 °F /  6.4 °C 30.2 in /  1023.2 hPa Calm     97 % 0 in /  0.0 mm
05:42 44.2 °F /  6.8 °C 43.5 °F /  6.4 °C 30.2 in /  1023.2 hPa Calm     97 % 0 in /  0.0 mm
05:47 44.4 °F /  6.9 °C 43.7 °F /  6.5 °C 30.2 in /  1023.2 hPa Calm     97 % 0 in /  0.0 mm
05:52 44.2 °F /  6.8 °C 43.5 °F /  6.4 °C 30.2 in /  1023.2 hPa Calm     97 % 0 in /  0.0 mm
05:57 43.7 °F /  6.5 °C 42.6 °F /  5.9 °C 30.2 in /  1023.2 hPa Calm     96 % 0 in /  0.0 mm
06:02 43.5 °F /  6.4 °C 42.4 °F /  5.8 °C 30.2 in /  1023.2 hPa Calm     96 % 0 in /  0.0 mm
06:17 43 °F /  6.1 °C 42.3 °F /  5.7 °C 30.2 in /  1023.2 hPa Calm     97 % 0 in /  0.0 mm
06:22 43 °F /  6.1 °C 42.3 °F /  5.7 °C 30.2 in /  1023.2 hPa Calm     97 % 0 in /  0.0 mm
06:32 42.3 °F /  5.7 °C 41.2 °F /  5.1 °C 30.2 in /  1023.2 hPa Calm     96 % 0 in /  0.0 mm
06:42 41.5 °F /  5.3 °C 40.5 °F /  4.7 °C 30.2 in /  1023.2 hPa Calm     96 % 0 in /  0.0 mm
06:52 41.4 °F /  5.2 °C 40.3 °F /  4.6 °C 30.2 in /  1023.2 hPa Calm     96 % 0 in /  0.0 mm
07:02 40.8 °F /  4.9 °C 39.7 °F /  4.3 °C 30.2 in /  1023.2 hPa Calm     96 % 0 in /  0.0 mm
07:07 40.5 °F /  4.7 °C 39.4 °F /  4.1 °C 30.2 in /  1023.2 hPa Calm     96 % 0 in /  0.0 mm
07:12 40.3 °F /  4.6 °C 39.2 °F /  4.0 °C 30.2 in /  1023.2 hPa Calm     96 % 0 in /  0.0 mm
07:17 40.5 °F /  4.7 °C 39.7 °F /  4.3 °C 30.2 in /  1023.2 hPa Calm     97 % 0 in /  0.0 mm
07:22 40.3 °F /  4.6 °C 39.6 °F /  4.2 °C 30.2 in /  1023.2 hPa Calm     97 % 0 in /  0.0 mm
07:32 40.5 °F /  4.7 °C 39.7 °F /  4.3 °C 30.2 in /  1023.2 hPa Calm     97 % 0 in /  0.0 mm
07:37 40.6 °F /  4.8 °C 39.9 °F /  4.4 °C 30.2 in /  1023.2 hPa Calm     97 % 0 in /  0.0 mm
07:42 40.5 °F /  4.7 °C 39.7 °F /  4.3 °C 30.2 in /  1022.9 hPa Calm     97 % 0 in /  0.0 mm
07:52 40.5 °F /  4.7 °C 39.7 °F /  4.3 °C 30.2 in /  1022.9 hPa Calm     97 % 0 in /  0.0 mm
07:57 40.3 °F /  4.6 °C 39.6 °F /  4.2 °C 30.2 in /  1022.9 hPa Calm   1 mph /  1.6 km/h 97 % 0 in /  0.0 mm
08:02 40.3 °F /  4.6 °C 39.6 °F /  4.2 °C 30.2 in /  1022.9 hPa Calm   1 mph /  1.6 km/h 97 % 0 in /  0.0 mm
08:12 41.4 °F /  5.2 °C 40.6 °F /  4.8 °C 30.2 in /  1022.9 hPa South 1 mph /  1.6 km/h 2 mph /  3.2 km/h 97 % 0 in /  0.0 mm
08:17 42.4 °F /  5.8 °C 41.7 °F /  5.4 °C 30.2 in /  1022.9 hPa SW 2 mph /  3.2 km/h 3 mph /  4.8 km/h 97 % 0 in /  0.0 mm
08:22 43.3 °F /  6.3 °C 42.6 °F /  5.9 °C 30.2 in /  1022.9 hPa SW 1 mph /  1.6 km/h 4 mph /  6.4 km/h 97 % 0 in /  0.0 mm
08:32 44.2 °F /  6.8 °C 43.7 °F /  6.5 °C 30.2 in /  1022.9 hPa SW 1 mph /  1.6 km/h 5 mph /  8.0 km/h 98 % 0 in /  0.0 mm
08:42 44.1 °F /  6.7 °C 43.3 °F /  6.3 °C 30.2 in /  1022.9 hPa Calm   5 mph /  8.0 km/h 97 % 0 in /  0.0 mm
08:47 43.2 °F /  6.2 °C 42.4 °F /  5.8 °C 30.2 in /  1022.9 hPa Calm   4 mph /  6.4 km/h 97 % 0 in /  0.0 mm
08:52 43 °F /  6.1 °C 42.3 °F /  5.7 °C 30.2 in /  1022.9 hPa Calm   1 mph /  1.6 km/h 97 % 0 in /  0.0 mm
08:57 42.4 °F /  5.8 °C 41.7 °F /  5.4 °C 30.2 in /  1022.9 hPa Calm   1 mph /  1.6 km/h 97 % 0 in /  0.0 mm
09:12 43.9 °F /  6.6 °C 43.2 °F /  6.2 °C 30.2 in /  1022.9 hPa Calm   1 mph /  1.6 km/h 97 % 0 in /  0.0 mm
09:17 44.4 °F /  6.9 °C 43.7 °F /  6.5 °C 30.2 in /  1022.9 hPa South 2 mph /  3.2 km/h 2 mph /  3.2 km/h 97 % 0 in /  0.0 mm
09:22 45 °F /  7.2 °C 44.2 °F /  6.8 °C 30.2 in /  1022.9 hPa SSE 2 mph /  3.2 km/h 3 mph /  4.8 km/h 97 % 0 in /  0.0 mm
09:32 45.7 °F /  7.6 °C 45.1 °F /  7.3 °C 30.2 in /  1022.9 hPa SSW 2 mph /  3.2 km/h 4 mph /  6.4 km/h 98 % 0 in /  0.0 mm
09:42 46.2 °F /  7.9 °C 45.7 °F /  7.6 °C 30.2 in /  1022.9 hPa South 2 mph /  3.2 km/h 6 mph /  9.7 km/h 98 % 0 in /  0.0 mm
09:47 46.6 °F /  8.1 °C 46 °F /  7.8 °C 30.2 in /  1022.9 hPa SSE 3 mph /  4.8 km/h 6 mph /  9.7 km/h 98 % 0 in /  0.0 mm
09:52 47.1 °F /  8.4 °C 46.6 °F /  8.1 °C 30.2 in /  1022.9 hPa SSW 2 mph /  3.2 km/h 6 mph /  9.7 km/h 98 % 0 in /  0.0 mm
09:57 47.8 °F /  8.8 °C 47.3 °F /  8.5 °C 30.2 in /  1022.9 hPa South 1 mph /  1.6 km/h 5 mph /  8.0 km/h 98 % 0 in /  0.0 mm
10:02 48.7 °F /  9.3 °C 48.2 °F /  9.0 °C 30.2 in /  1022.9 hPa SSE 1 mph /  1.6 km/h 5 mph /  8.0 km/h 98 % 0 in /  0.0 mm
10:07 49.3 °F /  9.6 °C 48.7 °F /  9.3 °C 30.2 in /  1022.9 hPa WSW 1 mph /  1.6 km/h 5 mph /  8.0 km/h 98 % 0 in /  0.0 mm
10:12 49.8 °F /  9.9 °C 49.3 °F /  9.6 °C 30.2 in /  1022.9 hPa SSW 3 mph /  4.8 km/h 5 mph /  8.0 km/h 98 % 0 in /  0.0 mm
10:17 49.8 °F /  9.9 °C 48.9 °F /  9.4 °C 30.2 in /  1023.2 hPa SSW 4 mph /  6.4 km/h 5 mph /  8.0 km/h 97 % 0 in /  0.0 mm
10:22 50.2 °F /  10.1 °C 49.3 °F /  9.6 °C 30.2 in /  1023.2 hPa South 3 mph /  4.8 km/h 6 mph /  9.7 km/h 97 % 0 in /  0.0 mm
10:32 50.7 °F /  10.4 °C 49.8 °F /  9.9 °C 30.2 in /  1022.9 hPa SW 3 mph /  4.8 km/h 6 mph /  9.7 km/h 97 % 0 in /  0.0 mm
10:37 51.1 °F /  10.6 °C 50.2 °F /  10.1 °C 30.2 in /  1022.9 hPa SW 4 mph /  6.4 km/h 6 mph /  9.7 km/h 97 % 0 in /  0.0 mm
10:42 51.1 °F /  10.6 °C 50 °F /  10.0 °C 30.2 in /  1022.9 hPa SW 2 mph /  3.2 km/h 6 mph /  9.7 km/h 96 % 0 in /  0.0 mm
10:47 51.4 °F /  10.8 °C 50.5 °F /  10.3 °C 30.2 in /  1022.9 hPa West 2 mph /  3.2 km/h 6 mph /  9.7 km/h 97 % 0.01 in /  0.3 mm
10:52 52 °F /  11.1 °C 51.1 °F /  10.6 °C 30.2 in /  1022.9 hPa SW 6 mph /  9.7 km/h 6 mph /  9.7 km/h 97 % 0.01 in /  0.3 mm
10:57 52.2 °F /  11.2 °C 50.7 °F /  10.4 °C 30.2 in /  1023.2 hPa WSW 3 mph /  4.8 km/h 8 mph /  12.9 km/h 95 % 0.01 in /  0.3 mm
11:02 52.2 °F /  11.2 °C 50.5 °F /  10.3 °C 30.2 in /  1023.2 hPa SW 4 mph /  6.4 km/h 8 mph /  12.9 km/h 94 % 0.01 in /  0.3 mm
11:12 52.9 °F /  11.6 °C 50.5 °F /  10.3 °C 30.2 in /  1023.2 hPa SW 3 mph /  4.8 km/h 9 mph /  14.5 km/h 92 % 0.01 in /  0.3 mm
11:17 53.2 °F /  11.8 °C 50.9 °F /  10.5 °C 30.2 in /  1022.9 hPa SW 2 mph /  3.2 km/h 10 mph /  16.1 km/h 92 % 0.01 in /  0.3 mm
11:22 53.4 °F /  11.9 °C 50.5 °F /  10.3 °C 30.2 in /  1023.2 hPa SSE 5 mph /  8.0 km/h 12 mph /  19.3 km/h 90 % 0.01 in /  0.3 mm
11:27 53.8 °F /  12.1 °C 50.9 °F /  10.5 °C 30.2 in /  1023.2 hPa WSW 6 mph /  9.7 km/h 12 mph /  19.3 km/h 90 % 0.01 in /  0.3 mm
11:32 54.1 °F /  12.3 °C 50.9 °F /  10.5 °C 30.2 in /  1022.9 hPa WSW 4 mph /  6.4 km/h 12 mph /  19.3 km/h 89 % 0.01 in /  0.3 mm
11:42 54.7 °F /  12.6 °C 51.3 °F /  10.7 °C 30.2 in /  1022.9 hPa SW 8 mph /  12.9 km/h 9 mph /  14.5 km/h 88 % 0 in /  0.0 mm
11:47 54.7 °F /  12.6 °C 50.9 °F /  10.5 °C 30.2 in /  1022.9 hPa SW 5 mph /  8.0 km/h 9 mph /  14.5 km/h 87 % 0 in /  0.0 mm
11:52 55.2 °F /  12.9 °C 51.4 °F /  10.8 °C 30.2 in /  1022.9 hPa SW 5 mph /  8.0 km/h 9 mph /  14.5 km/h 87 % 0 in /  0.0 mm
12:02 55.9 °F /  13.3 °C 51.8 °F /  11.0 °C 30.2 in /  1022.9 hPa SW 7 mph /  11.3 km/h 9 mph /  14.5 km/h 86 % 0 in /  0.0 mm
12:12 57 °F /  13.9 °C 51.6 °F /  10.9 °C 30.2 in /  1022.9 hPa SW 6 mph /  9.7 km/h 12 mph /  19.3 km/h 82 % 0 in /  0.0 mm
12:17 57.4 °F /  14.1 °C 52.5 °F /  11.4 °C 30.2 in /  1022.9 hPa WSW 7 mph /  11.3 km/h 12 mph /  19.3 km/h 84 % 0 in /  0.0 mm
12:27 57.7 °F /  14.3 °C 52 °F /  11.1 °C 30.2 in /  1022.6 hPa SW 5 mph /  8.0 km/h 13 mph /  20.9 km/h 81 % 0 in /  0.0 mm
12:32 58.6 °F /  14.8 °C 53.2 °F /  11.8 °C 30.2 in /  1022.2 hPa SW 10 mph /  16.1 km/h 13 mph /  20.9 km/h 82 % 0 in /  0.0 mm
12:42 59.5 °F /  15.3 °C 52.3 °F /  11.3 °C 30.2 in /  1022.6 hPa WSW 9 mph /  14.5 km/h 15 mph /  24.1 km/h 77 % 0 in /  0.0 mm
12:47 59.5 °F /  15.3 °C 52 °F /  11.1 °C 30.2 in /  1022.6 hPa SW 7 mph /  11.3 km/h 15 mph /  24.1 km/h 76 % 0 in /  0.0 mm
12:52 60.1 °F /  15.6 °C 52.5 °F /  11.4 °C 30.2 in /  1022.6 hPa SW 4 mph /  6.4 km/h 13 mph /  20.9 km/h 76 % 0 in /  0.0 mm
13:02 60.8 °F /  16.0 °C 52.2 °F /  11.2 °C 30.2 in /  1022.9 hPa West 6 mph /  9.7 km/h 13 mph /  20.9 km/h 73 % 0 in /  0.0 mm
13:07 61.2 °F /  16.2 °C 51.6 °F /  10.9 °C 30.2 in /  1022.9 hPa WSW 8 mph /  12.9 km/h 12 mph /  19.3 km/h 71 % 0 in /  0.0 mm
13:12 61.5 °F /  16.4 °C 52.3 °F /  11.3 °C 30.2 in /  1022.9 hPa WNW 9 mph /  14.5 km/h 15 mph /  24.1 km/h 72 % 0 in /  0.0 mm
13:17 61.9 °F /  16.6 °C 52.3 °F /  11.3 °C 30.2 in /  1022.9 hPa WSW 13 mph /  20.9 km/h 15 mph /  24.1 km/h 71 % 0 in /  0.0 mm
13:22 61.9 °F /  16.6 °C 51.6 °F /  10.9 °C 30.2 in /  1022.6 hPa WSW 4 mph /  6.4 km/h 14 mph /  22.5 km/h 69 % 0 in /  0.0 mm
13:27 62.2 °F /  16.8 °C 52 °F /  11.1 °C 30.2 in /  1022.6 hPa WSW 3 mph /  4.8 km/h 14 mph /  22.5 km/h 69 % 0 in /  0.0 mm
13:32 62.4 °F /  16.9 °C 51.3 °F /  10.7 °C 30.2 in /  1022.2 hPa SW 1 mph /  1.6 km/h 14 mph /  22.5 km/h 67 % 0 in /  0.0 mm
13:37 62.8 °F /  17.1 °C 51.3 °F /  10.7 °C 30.2 in /  1022.2 hPa WSW 4 mph /  6.4 km/h 14 mph /  22.5 km/h 66 % 0 in /  0.0 mm
13:42 63.3 °F /  17.4 °C 52.2 °F /  11.2 °C 30.2 in /  1022.2 hPa SW 10 mph /  16.1 km/h 13 mph /  20.9 km/h 67 % 0 in /  0.0 mm
13:47 63.5 °F /  17.5 °C 52 °F /  11.1 °C 30.2 in /  1022.2 hPa SSW 7 mph /  11.3 km/h 13 mph /  20.9 km/h 66 % 0 in /  0.0 mm
13:57 64.2 °F /  17.9 °C 50 °F /  10.0 °C 30.2 in /  1022.2 hPa WSW 7 mph /  11.3 km/h 13 mph /  20.9 km/h 60 % 0 in /  0.0 mm
14:02 64 °F /  17.8 °C 50.4 °F /  10.2 °C 30.2 in /  1022.2 hPa West 8 mph /  12.9 km/h 11 mph /  17.7 km/h 61 % 0 in /  0.0 mm
14:07 64 °F /  17.8 °C 49.8 °F /  9.9 °C 30.2 in /  1022.2 hPa SW 6 mph /  9.7 km/h 14 mph /  22.5 km/h 60 % 0 in /  0.0 mm
14:12 64.4 °F /  18.0 °C 50.7 °F /  10.4 °C 30.2 in /  1021.9 hPa WSW 8 mph /  12.9 km/h 14 mph /  22.5 km/h 61 % 0 in /  0.0 mm
14:17 64.8 °F /  18.2 °C 50.5 °F /  10.3 °C 30.2 in /  1021.9 hPa West 5 mph /  8.0 km/h 14 mph /  22.5 km/h 60 % 0 in /  0.0 mm
14:22 64.6 °F /  18.1 °C 49.5 °F /  9.7 °C 30.2 in /  1021.9 hPa West 10 mph /  16.1 km/h 12 mph /  19.3 km/h 58 % 0 in /  0.0 mm
14:27 64.2 °F /  17.9 °C 49.1 °F /  9.5 °C 30.2 in /  1021.6 hPa WSW 7 mph /  11.3 km/h 14 mph /  22.5 km/h 58 % 0 in /  0.0 mm
14:32 64.8 °F /  18.2 °C 50.5 °F /  10.3 °C 30.2 in /  1021.6 hPa WSW 9 mph /  14.5 km/h 14 mph /  22.5 km/h 60 % 0 in /  0.0 mm
14:37 64.9 °F /  18.3 °C 49.8 °F /  9.9 °C 30.2 in /  1021.6 hPa SW 5 mph /  8.0 km/h 14 mph /  22.5 km/h 58 % 0 in /  0.0 mm
14:42 64.9 °F /  18.3 °C 49.3 °F /  9.6 °C 30.2 in /  1021.6 hPa WSW 6 mph /  9.7 km/h 11 mph /  17.7 km/h 57 % 0 in /  0.0 mm
14:47 64.9 °F /  18.3 °C 49.3 °F /  9.6 °C 30.2 in /  1021.6 hPa WNW 4 mph /  6.4 km/h 14 mph /  22.5 km/h 57 % 0 in /  0.0 mm
14:52 65.1 °F /  18.4 °C 50 °F /  10.0 °C 30.2 in /  1021.2 hPa WSW 3 mph /  4.8 km/h 14 mph /  22.5 km/h 58 % 0 in /  0.0 mm
14:57 65.5 °F /  18.6 °C 50.4 °F /  10.2 °C 30.2 in /  1021.2 hPa West 8 mph /  12.9 km/h 12 mph /  19.3 km/h 58 % 0 in /  0.0 mm
15:02 65.7 °F /  18.7 °C 50 °F /  10.0 °C 30.2 in /  1020.9 hPa WSW 10 mph /  16.1 km/h 11 mph /  17.7 km/h 57 % 0 in /  0.0 mm
15:07 65.8 °F /  18.8 °C 51.1 °F /  10.6 °C 30.2 in /  1020.9 hPa SSW 4 mph /  6.4 km/h 12 mph /  19.3 km/h 59 % 0 in /  0.0 mm
15:12 65.8 °F /  18.8 °C 50.2 °F /  10.1 °C 30.2 in /  1020.9 hPa SSW 7 mph /  11.3 km/h 13 mph /  20.9 km/h 57 % 0 in /  0.0 mm
15:17 65.8 °F /  18.8 °C 49.6 °F /  9.8 °C 30.2 in /  1020.9 hPa West 9 mph /  14.5 km/h 13 mph /  20.9 km/h 56 % 0 in /  0.0 mm
15:22 66 °F /  18.9 °C 48.9 °F /  9.4 °C 30.2 in /  1020.9 hPa WNW 3 mph /  4.8 km/h 13 mph /  20.9 km/h 54 % 0 in /  0.0 mm
15:32 66.6 °F /  19.2 °C 49.5 °F /  9.7 °C 30.2 in /  1020.9 hPa WNW 5 mph /  8.0 km/h 11 mph /  17.7 km/h 54 % 0 in /  0.0 mm
15:37 66.6 °F /  19.2 °C 49.8 °F /  9.9 °C 30.2 in /  1020.9 hPa WNW 7 mph /  11.3 km/h 13 mph /  20.9 km/h 55 % 0 in /  0.0 mm
15:42 66.6 °F /  19.2 °C 49.8 °F /  9.9 °C 30.2 in /  1020.9 hPa NW 6 mph /  9.7 km/h 13 mph /  20.9 km/h 55 % 0 in /  0.0 mm
15:47 66.9 °F /  19.4 °C 51.6 °F /  10.9 °C 30.2 in /  1020.9 hPa WSW 9 mph /  14.5 km/h 13 mph /  20.9 km/h 58 % 0 in /  0.0 mm
15:52 67.1 °F /  19.5 °C 50.9 °F /  10.5 °C 30.2 in /  1020.9 hPa West 5 mph /  8.0 km/h 13 mph /  20.9 km/h 56 % 0 in /  0.0 mm
15:57 66.9 °F /  19.4 °C 50.2 °F /  10.1 °C 30.2 in /  1020.9 hPa WSW 7 mph /  11.3 km/h 11 mph /  17.7 km/h 55 % 0 in /  0.0 mm
16:02 67.1 °F /  19.5 °C 50.4 °F /  10.2 °C 30.2 in /  1020.9 hPa WNW 6 mph /  9.7 km/h 13 mph /  20.9 km/h 55 % 0 in /  0.0 mm
16:12 66.7 °F /  19.3 °C 50.5 °F /  10.3 °C 30.2 in /  1020.9 hPa WNW 6 mph /  9.7 km/h 16 mph /  25.7 km/h 56 % 0 in /  0.0 mm
16:17 66.6 °F /  19.2 °C 50.9 °F /  10.5 °C 30.2 in /  1020.9 hPa West 7 mph /  11.3 km/h 16 mph /  25.7 km/h 57 % 0 in /  0.0 mm
16:22 66.4 °F /  19.1 °C 51.1 °F /  10.6 °C 30.2 in /  1020.9 hPa WSW 8 mph /  12.9 km/h 16 mph /  25.7 km/h 58 % 0 in /  0.0 mm
16:27 66.4 °F /  19.1 °C 52.2 °F /  11.2 °C 30.2 in /  1020.9 hPa SW 9 mph /  14.5 km/h 12 mph /  19.3 km/h 60 % 0 in /  0.0 mm
16:32 66.6 °F /  19.2 °C 51.3 °F /  10.7 °C 30.2 in /  1020.9 hPa WSW 7 mph /  11.3 km/h 13 mph /  20.9 km/h 58 % 0 in /  0.0 mm
16:37 66.7 °F /  19.3 °C 52 °F /  11.1 °C 30.1 in /  1020.5 hPa West 8 mph /  12.9 km/h 13 mph /  20.9 km/h 59 % 0 in /  0.0 mm
16:42 66.7 °F /  19.3 °C 51.4 °F /  10.8 °C 30.1 in /  1020.5 hPa West 4 mph /  6.4 km/h 13 mph /  20.9 km/h 58 % 0 in /  0.0 mm
16:47 66.4 °F /  19.1 °C 51.6 °F /  10.9 °C 30.2 in /  1020.9 hPa WSW 8 mph /  12.9 km/h 12 mph /  19.3 km/h 59 % 0 in /  0.0 mm
16:52 66.2 °F /  19.0 °C 52 °F /  11.1 °C 30.2 in /  1020.9 hPa WSW 10 mph /  16.1 km/h 12 mph /  19.3 km/h 60 % 0 in /  0.0 mm
16:57 65.8 °F /  18.8 °C 51.6 °F /  10.9 °C 30.1 in /  1020.5 hPa WSW 4 mph /  6.4 km/h 13 mph /  20.9 km/h 60 % 0 in /  0.0 mm
17:02 65.7 °F /  18.7 °C 51.8 °F /  11.0 °C 30.1 in /  1020.5 hPa West 9 mph /  14.5 km/h 13 mph /  20.9 km/h 61 % 0 in /  0.0 mm
17:07 65.7 °F /  18.7 °C 51.8 °F /  11.0 °C 30.1 in /  1020.5 hPa WSW 7 mph /  11.3 km/h 12 mph /  19.3 km/h 61 % 0 in /  0.0 mm
17:12 65.7 °F /  18.7 °C 52.3 °F /  11.3 °C 30.1 in /  1020.5 hPa WSW 5 mph /  8.0 km/h 12 mph /  19.3 km/h 62 % 0 in /  0.0 mm
17:17 66 °F /  18.9 °C 52.7 °F /  11.5 °C 30.1 in /  1020.5 hPa West 7 mph /  11.3 km/h 12 mph /  19.3 km/h 62 % 0 in /  0.0 mm
17:22 66 °F /  18.9 °C 52.2 °F /  11.2 °C 30.1 in /  1020.5 hPa West 12 mph /  19.3 km/h 12 mph /  19.3 km/h 61 % 0 in /  0.0 mm
17:32 65.8 °F /  18.8 °C 52.5 °F /  11.4 °C 30.1 in /  1020.5 hPa West 5 mph /  8.0 km/h 14 mph /  22.5 km/h 62 % 0 in /  0.0 mm
17:37 65.7 °F /  18.7 °C 52.3 °F /  11.3 °C 30.1 in /  1020.5 hPa NW 7 mph /  11.3 km/h 14 mph /  22.5 km/h 62 % 0 in /  0.0 mm
17:42 65.5 °F /  18.6 °C 52.5 °F /  11.4 °C 30.2 in /  1020.9 hPa West 3 mph /  4.8 km/h 13 mph /  20.9 km/h 63 % 0 in /  0.0 mm
17:47 65.5 °F /  18.6 °C 52.5 °F /  11.4 °C 30.2 in /  1020.9 hPa WNW 8 mph /  12.9 km/h 13 mph /  20.9 km/h 63 % 0 in /  0.0 mm
17:52 65.3 °F /  18.5 °C 52.3 °F /  11.3 °C 30.1 in /  1020.5 hPa WSW 8 mph /  12.9 km/h 12 mph /  19.3 km/h 63 % 0 in /  0.0 mm
17:57 65.1 °F /  18.4 °C 52.7 °F /  11.5 °C 30.1 in /  1020.5 hPa WNW 16 mph /  25.7 km/h 16 mph /  25.7 km/h 64 % 0 in /  0.0 mm
18:02 64.9 °F /  18.3 °C 52.5 °F /  11.4 °C 30.1 in /  1020.5 hPa West 6 mph /  9.7 km/h 17 mph /  27.4 km/h 64 % 0 in /  0.0 mm
18:07 64.8 °F /  18.2 °C 52.7 °F /  11.5 °C 30.1 in /  1020.5 hPa West 9 mph /  14.5 km/h 17 mph /  27.4 km/h 65 % 0 in /  0.0 mm
18:12 64.6 °F /  18.1 °C 52.9 °F /  11.6 °C 30.1 in /  1020.5 hPa West 7 mph /  11.3 km/h 17 mph /  27.4 km/h 66 % 0 in /  0.0 mm
18:17 64.6 °F /  18.1 °C 52.9 °F /  11.6 °C 30.1 in /  1020.5 hPa WSW 7 mph /  11.3 km/h 15 mph /  24.1 km/h 66 % 0 in /  0.0 mm
18:22 64.2 °F /  17.9 °C 53.1 °F /  11.7 °C 30.1 in /  1020.5 hPa West 5 mph /  8.0 km/h 15 mph /  24.1 km/h 67 % 0 in /  0.0 mm
18:32 63.9 °F /  17.7 °C 53.4 °F /  11.9 °C 30.1 in /  1020.5 hPa WNW 5 mph /  8.0 km/h 12 mph /  19.3 km/h 69 % 0 in /  0.0 mm
18:42 63.5 °F /  17.5 °C 54 °F /  12.2 °C 30.1 in /  1020.5 hPa West 7 mph /  11.3 km/h 12 mph /  19.3 km/h 71 % 0 in /  0.0 mm
18:47 63.3 °F /  17.4 °C 54.1 °F /  12.3 °C 30.1 in /  1020.5 hPa West 6 mph /  9.7 km/h 15 mph /  24.1 km/h 72 % 0 in /  0.0 mm
18:52 63.3 °F /  17.4 °C 54.1 °F /  12.3 °C 30.1 in /  1020.5 hPa WSW 4 mph /  6.4 km/h 15 mph /  24.1 km/h 72 % 0 in /  0.0 mm
19:02 63 °F /  17.2 °C 54.1 °F /  12.3 °C 30.1 in /  1020.5 hPa SW 6 mph /  9.7 km/h 9 mph /  14.5 km/h 73 % 0 in /  0.0 mm
19:12 62.8 °F /  17.1 °C 54.3 °F /  12.4 °C 30.2 in /  1020.9 hPa WNW 3 mph /  4.8 km/h 9 mph /  14.5 km/h 74 % 0 in /  0.0 mm
19:17 62.6 °F /  17.0 °C 54.5 °F /  12.5 °C 30.2 in /  1020.9 hPa WNW 3 mph /  4.8 km/h 9 mph /  14.5 km/h 75 % 0 in /  0.0 mm
19:22 62.4 °F /  16.9 °C 54.7 °F /  12.6 °C 30.2 in /  1020.9 hPa West 3 mph /  4.8 km/h 9 mph /  14.5 km/h 76 % 0 in /  0.0 mm
19:27 62.2 °F /  16.8 °C 54.5 °F /  12.5 °C 30.2 in /  1020.9 hPa West 9 mph /  14.5 km/h 10 mph /  16.1 km/h 76 % 0 in /  0.0 mm
19:32 62.1 °F /  16.7 °C 54.7 °F /  12.6 °C 30.2 in /  1020.9 hPa WNW 9 mph /  14.5 km/h 12 mph /  19.3 km/h 77 % 0 in /  0.0 mm
19:37 61.9 °F /  16.6 °C 55.2 °F /  12.9 °C 30.2 in /  1020.9 hPa WNW 4 mph /  6.4 km/h 14 mph /  22.5 km/h 79 % 0 in /  0.0 mm
19:42 61.3 °F /  16.3 °C 55 °F /  12.8 °C 30.2 in /  1021.2 hPa WSW 3 mph /  4.8 km/h 14 mph /  22.5 km/h 80 % 0 in /  0.0 mm
19:47 61 °F /  16.1 °C 55.4 °F /  13.0 °C 30.2 in /  1021.2 hPa West 5 mph /  8.0 km/h 15 mph /  24.1 km/h 82 % 0 in /  0.0 mm
19:52 60.6 °F /  15.9 °C 55 °F /  12.8 °C 30.2 in /  1021.2 hPa NW 9 mph /  14.5 km/h 15 mph /  24.1 km/h 82 % 0 in /  0.0 mm
19:57 60.3 °F /  15.7 °C 55 °F /  12.8 °C 30.2 in /  1021.2 hPa NW 8 mph /  12.9 km/h 18 mph /  29.0 km/h 83 % 0 in /  0.0 mm
20:02 59.7 °F /  15.4 °C 55.2 °F /  12.9 °C 30.2 in /  1021.2 hPa West 10 mph /  16.1 km/h 18 mph /  29.0 km/h 85 % 0 in /  0.0 mm
20:07 59.4 °F /  15.2 °C 55.2 °F /  12.9 °C 30.2 in /  1021.6 hPa WNW 7 mph /  11.3 km/h 16 mph /  25.7 km/h 86 % 0 in /  0.0 mm
20:12 58.8 °F /  14.9 °C 55 °F /  12.8 °C 30.2 in /  1021.6 hPa WNW 5 mph /  8.0 km/h 17 mph /  27.4 km/h 87 % 0 in /  0.0 mm
20:22 58.5 °F /  14.7 °C 55.2 °F /  12.9 °C 30.2 in /  1021.6 hPa West 2 mph /  3.2 km/h 14 mph /  22.5 km/h 89 % 0 in /  0.0 mm
20:27 58.3 °F /  14.6 °C 54.7 °F /  12.6 °C 30.2 in /  1021.6 hPa WSW 8 mph /  12.9 km/h 12 mph /  19.3 km/h 88 % 0 in /  0.0 mm
20:32 58.3 °F /  14.6 °C 54.7 °F /  12.6 °C 30.2 in /  1021.6 hPa WNW 9 mph /  14.5 km/h 13 mph /  20.9 km/h 88 % 0 in /  0.0 mm
20:37 58.3 °F /  14.6 °C 54.7 °F /  12.6 °C 30.2 in /  1021.6 hPa WNW 5 mph /  8.0 km/h 13 mph /  20.9 km/h 88 % 0 in /  0.0 mm
20:42 57.9 °F /  14.4 °C 54.7 °F /  12.6 °C 30.2 in /  1021.6 hPa WNW 4 mph /  6.4 km/h 13 mph /  20.9 km/h 89 % 0 in /  0.0 mm
20:47 57.7 °F /  14.3 °C 54.5 °F /  12.5 °C 30.2 in /  1021.6 hPa WNW 8 mph /  12.9 km/h 13 mph /  20.9 km/h 89 % 0 in /  0.0 mm
20:52 57.6 °F /  14.2 °C 54.3 °F /  12.4 °C 30.2 in /  1021.6 hPa WNW 6 mph /  9.7 km/h 11 mph /  17.7 km/h 89 % 0 in /  0.0 mm
20:57 57.6 °F /  14.2 °C 54.3 °F /  12.4 °C 30.2 in /  1021.6 hPa West 7 mph /  11.3 km/h 11 mph /  17.7 km/h 89 % 0 in /  0.0 mm
21:02 57.6 °F /  14.2 °C 54.7 °F /  12.6 °C 30.2 in /  1021.6 hPa NW 5 mph /  8.0 km/h 13 mph /  20.9 km/h 90 % 0 in /  0.0 mm
21:07 57.4 °F /  14.1 °C 54.5 °F /  12.5 °C 30.2 in /  1021.6 hPa Calm   13 mph /  20.9 km/h 90 % 0 in /  0.0 mm
21:12 57.4 °F /  14.1 °C 54.5 °F /  12.5 °C 30.2 in /  1021.6 hPa North 9 mph /  14.5 km/h 9 mph /  14.5 km/h 90 % 0 in /  0.0 mm
21:17 57.4 °F /  14.1 °C 54.5 °F /  12.5 °C 30.2 in /  1021.6 hPa NW 7 mph /  11.3 km/h 13 mph /  20.9 km/h 90 % 0 in /  0.0 mm
21:22 57.2 °F /  14.0 °C 54.7 °F /  12.6 °C 30.2 in /  1021.6 hPa NW 8 mph /  12.9 km/h 13 mph /  20.9 km/h 91 % 0 in /  0.0 mm
21:27 57.2 °F /  14.0 °C 54.7 °F /  12.6 °C 30.2 in /  1021.6 hPa WNW 3 mph /  4.8 km/h 13 mph /  20.9 km/h 91 % 0 in /  0.0 mm
21:32 57 °F /  13.9 °C 54.7 °F /  12.6 °C 30.2 in /  1021.6 hPa WNW 3 mph /  4.8 km/h 12 mph /  19.3 km/h 92 % 0 in /  0.0 mm
21:42 56.8 °F /  13.8 °C 54.5 °F /  12.5 °C 30.2 in /  1021.6 hPa WSW 5 mph /  8.0 km/h 9 mph /  14.5 km/h 92 % 0 in /  0.0 mm
21:47 56.8 °F /  13.8 °C 54.5 °F /  12.5 °C 30.2 in /  1021.6 hPa Calm   9 mph /  14.5 km/h 92 % 0 in /  0.0 mm
21:52 56.8 °F /  13.8 °C 54.5 °F /  12.5 °C 30.2 in /  1021.6 hPa WNW 2 mph /  3.2 km/h 9 mph /  14.5 km/h 92 % 0 in /  0.0 mm
22:02 56.7 °F /  13.7 °C 54.7 °F /  12.6 °C 30.2 in /  1021.6 hPa NNW 5 mph /  8.0 km/h 11 mph /  17.7 km/h 93 % 0 in /  0.0 mm
22:12 56.7 °F /  13.7 °C 54.7 °F /  12.6 °C 30.2 in /  1021.6 hPa NNW 2 mph /  3.2 km/h 12 mph /  19.3 km/h 93 % 0 in /  0.0 mm
22:17 56.7 °F /  13.7 °C 54.7 °F /  12.6 °C 30.2 in /  1021.9 hPa WSW 6 mph /  9.7 km/h 12 mph /  19.3 km/h 93 % 0 in /  0.0 mm
22:22 56.5 °F /  13.6 °C 54.5 °F /  12.5 °C 30.2 in /  1021.9 hPa WNW 4 mph /  6.4 km/h 10 mph /  16.1 km/h 93 % 0 in /  0.0 mm
22:27 56.5 °F /  13.6 °C 54.5 °F /  12.5 °C 30.2 in /  1021.9 hPa NNW 5 mph /  8.0 km/h 11 mph /  17.7 km/h 93 % 0 in /  0.0 mm
22:32 56.5 °F /  13.6 °C 54.9 °F /  12.7 °C 30.2 in /  1021.9 hPa West 3 mph /  4.8 km/h 11 mph /  17.7 km/h 94 % 0 in /  0.0 mm
22:37 56.5 °F /  13.6 °C 54.9 °F /  12.7 °C 30.2 in /  1021.9 hPa West 6 mph /  9.7 km/h 11 mph /  17.7 km/h 94 % 0 in /  0.0 mm
22:42 56.5 °F /  13.6 °C 54.9 °F /  12.7 °C 30.2 in /  1021.9 hPa WNW 9 mph /  14.5 km/h 10 mph /  16.1 km/h 94 % 0 in /  0.0 mm
22:47 56.5 °F /  13.6 °C 54.9 °F /  12.7 °C 30.2 in /  1021.9 hPa NW 5 mph /  8.0 km/h 10 mph /  16.1 km/h 94 % 0 in /  0.0 mm
22:52 56.5 °F /  13.6 °C 54.9 °F /  12.7 °C 30.2 in /  1021.9 hPa WSW 2 mph /  3.2 km/h 10 mph /  16.1 km/h 94 % 0 in /  0.0 mm
23:02 56.5 °F /  13.6 °C 54.9 °F /  12.7 °C 30.2 in /  1022.2 hPa WNW 5 mph /  8.0 km/h 8 mph /  12.9 km/h 94 % 0 in /  0.0 mm
23:07 56.5 °F /  13.6 °C 54.9 °F /  12.7 °C 30.2 in /  1021.9 hPa West 3 mph /  4.8 km/h 8 mph /  12.9 km/h 94 % 0 in /  0.0 mm
23:12 56.3 °F /  13.5 °C 54.7 °F /  12.6 °C 30.2 in /  1022.2 hPa WNW 4 mph /  6.4 km/h 9 mph /  14.5 km/h 94 % 0 in /  0.0 mm
23:17 56.5 °F /  13.6 °C 54.9 °F /  12.7 °C 30.2 in /  1022.2 hPa WSW 5 mph /  8.0 km/h 9 mph /  14.5 km/h 94 % 0 in /  0.0 mm
23:22 56.3 °F /  13.5 °C 54.7 °F /  12.6 °C 30.2 in /  1022.2 hPa NW 8 mph /  12.9 km/h 9 mph /  14.5 km/h 94 % 0 in /  0.0 mm
23:27 56.3 °F /  13.5 °C 54.7 °F /  12.6 °C 30.2 in /  1022.2 hPa WNW 3 mph /  4.8 km/h 9 mph /  14.5 km/h 94 % 0 in /  0.0 mm
23:37 56.3 °F /  13.5 °C 54.7 °F /  12.6 °C 30.2 in /  1022.2 hPa NW 3 mph /  4.8 km/h 8 mph /  12.9 km/h 94 % 0 in /  0.0 mm
23:42 56.3 °F /  13.5 °C 54.7 °F /  12.6 °C 30.2 in /  1022.2 hPa SW 1 mph /  1.6 km/h 7 mph /  11.3 km/h 94 % 0 in /  0.0 mm
23:47 56.5 °F /  13.6 °C 54.9 °F /  12.7 °C 30.2 in /  1022.2 hPa WNW 5 mph /  8.0 km/h 10 mph /  16.1 km/h 94 % 0 in /  0.0 mm
23:52 56.3 °F /  13.5 °C 54.7 °F /  12.6 °C 30.2 in /  1022.2 hPa NW 3 mph /  4.8 km/h 10 mph /  16.1 km/h 94 % 0 in /  0.0 mm
23:57 56.3 °F /  13.5 °C 54.7 °F /  12.6 °C 30.2 in /  1022.2 hPa NW 3 mph /  4.8 km/h 10 mph /  16.1 km/h 94 % 0 in /  0.0 mm
Meteo18
Compliments of Weather Underground - 4 mb

Script developed by  Jim McMurry - jmcmurry@mwt.net Adapted for the template by  Wim van der Kuil - Leuven-Template.eu

You find our weather info also at:

European Weather Network

Weather Underground

Equipment we use:

Weather-station
Davis Vue

Weather-program
Meteohub

Weather-server
Raspberry PI 2 B+

Provider
1 and 1

Davis Vue

Meteohub

Raspberry PI 2 B+

1 and 1